Watonga, Oklahoma
Current Conditions -  °F | °C
As of 2:35 PM on Friday 28 Nov 2014 (Local Time) from KJWG Reporting Station
Clear Clear  
Wind Chill: 64°   Ceiling: Unl
Heat Index: 64°   Visibility: 10mi
Dew Point: 41°   Wind: 17mph
Humidity: 44%   Direction: 200°SSW
Pressure: 29.89"   Gusts: 22mph
Location:  35.84°N, 98.41°W
Report Text: KJWG 282035Z AUTO 20015G19KT 10SM CLR 18/05 A2989 RMK AO2 T01750052
Loading
Personal Weather Stations






























Interactive Weather Map New forecast layout! Learn more

10-Day Weather Forecast

Advertisements
Track Severe Weather on mobile